createdAt,value
2022-10-16T00:00:38.272Z,80.06
2022-10-16T00:01:40.990Z,79.79
2022-10-16T00:02:44.467Z,79.63
2022-10-16T00:03:48.151Z,79.80
2022-10-16T00:04:53.327Z,80.25
2022-10-16T00:05:58.508Z,80.33
2022-10-16T00:07:01.810Z,81.13
2022-10-16T00:08:05.565Z,81.66
2022-10-16T00:09:10.387Z,81.72
2022-10-16T00:10:14.912Z,81.77
2022-10-16T00:11:25.465Z,82.36
2022-10-16T00:12:27.942Z,82.59
2022-10-16T00:13:32.443Z,81.80
2022-10-16T00:14:36.163Z,81.63
2022-10-16T00:15:39.626Z,81.65
2022-10-16T00:16:44.266Z,81.56
2022-10-16T00:17:48.132Z,82.44
2022-10-16T00:18:51.541Z,83.18
2022-10-16T00:19:55.150Z,83.34
2022-10-16T00:21:02.732Z,82.91
2022-10-16T00:22:05.875Z,82.42
2022-10-16T00:23:09.100Z,82.07
2022-10-16T00:24:12.473Z,82.79
2022-10-16T00:25:15.797Z,82.61
2022-10-16T00:26:20.814Z,83.49
2022-10-16T00:27:24.489Z,84.17
2022-10-16T00:28:29.834Z,84.88
2022-10-16T00:29:33.275Z,84.79
2022-10-16T00:30:42.057Z,84.71
2022-10-16T00:31:46.133Z,84.94
2022-10-16T00:32:51.195Z,85.24
2022-10-16T00:33:56.636Z,85.34
2022-10-16T00:34:59.765Z,85.16
2022-10-16T00:36:03.793Z,85.35
2022-10-16T00:37:06.479Z,84.56
2022-10-16T00:38:09.879Z,85.14
2022-10-16T00:39:13.698Z,85.18
2022-10-16T00:40:16.158Z,85.55
2022-10-16T00:41:19.454Z,85.89
2022-10-16T00:42:25.010Z,86.33
2022-10-16T00:43:36.700Z,85.71
2022-10-16T00:44:44.381Z,85.57
2022-10-16T00:45:47.890Z,85.14
2022-10-16T00:46:51.906Z,85.35
2022-10-16T00:48:03.914Z,85.44
2022-10-16T00:49:12.079Z,85.31
2022-10-16T00:50:18.227Z,85.61
2022-10-16T00:51:23.899Z,85.24
2022-10-16T00:52:27.948Z,85.56
2022-10-16T00:53:31.631Z,85.30
2022-10-16T00:54:35.460Z,85.78
2022-10-16T00:55:42.402Z,85.29
2022-10-16T00:56:45.525Z,85.42
2022-10-16T00:57:49.104Z,86.07
2022-10-16T00:58:51.982Z,85.77
2022-10-16T00:59:57.833Z,85.81
2022-10-16T01:01:01.264Z,86.29
2022-10-16T01:02:05.531Z,86.17
2022-10-16T01:03:29.592Z,85.85
2022-10-16T01:04:36.761Z,86.00
2022-10-16T01:05:43.818Z,85.57
2022-10-16T01:06:48.168Z,85.33
2022-10-16T01:07:54.911Z,84.69
2022-10-16T01:09:08.795Z,84.42
2022-10-16T01:10:33.975Z,84.21
2022-10-16T01:11:45.105Z,84.34
2022-10-16T01:12:49.561Z,84.07
2022-10-16T01:13:54.226Z,84.13
2022-10-16T01:15:04.918Z,83.93
2022-10-16T01:16:16.370Z,84.01
2022-10-16T01:17:21.537Z,84.88
2022-10-16T01:18:27.563Z,84.84
2022-10-16T01:19:34.510Z,85.03
2022-10-16T01:20:48.253Z,85.05
2022-10-16T01:21:54.621Z,85.02
2022-10-16T01:23:16.571Z,84.67
2022-10-16T01:24:29.892Z,84.47
2022-10-16T01:25:37.146Z,85.25
2022-10-16T01:26:44.086Z,85.77
2022-10-16T01:27:48.840Z,85.51
2022-10-16T01:28:56.851Z,84.93
2022-10-16T01:30:03.711Z,85.27
2022-10-16T01:31:07.667Z,85.08
2022-10-16T01:32:18.973Z,84.64
2022-10-16T01:33:25.423Z,84.41
2022-10-16T01:34:42.684Z,85.10
2022-10-16T01:35:50.889Z,84.47
2022-10-16T01:36:59.200Z,84.87
2022-10-16T01:38:06.149Z,84.47
2022-10-16T01:39:10.918Z,84.02
2022-10-16T01:40:15.467Z,84.13
2022-10-16T01:41:24.405Z,84.29
2022-10-16T01:42:32.819Z,84.39
2022-10-16T01:43:38.837Z,84.48
2022-10-16T01:44:42.220Z,85.06
2022-10-16T01:45:50.218Z,85.08
2022-10-16T01:46:54.661Z,85.08
2022-10-16T01:48:00.066Z,85.23
2022-10-16T01:49:03.562Z,85.12
2022-10-16T01:50:07.932Z,84.72
2022-10-16T01:51:13.601Z,85.23
2022-10-16T01:52:17.943Z,84.88
2022-10-16T01:53:22.167Z,84.74
2022-10-16T01:54:28.120Z,84.75
2022-10-16T01:55:36.081Z,84.96
2022-10-16T01:56:40.027Z,85.42
2022-10-16T01:57:48.106Z,85.59
2022-10-16T01:58:52.155Z,84.98
2022-10-16T01:59:57.582Z,85.76
2022-10-16T02:01:04.064Z,85.96
2022-10-16T02:02:10.437Z,86.04
2022-10-16T02:03:15.760Z,86.19
2022-10-16T02:04:21.146Z,85.87
2022-10-16T02:05:31.443Z,85.93
2022-10-16T02:06:34.739Z,85.77
2022-10-16T02:07:38.137Z,85.78
2022-10-16T02:08:43.550Z,85.89
2022-10-16T02:09:47.196Z,85.54
2022-10-16T02:10:50.418Z,85.87
2022-10-16T02:11:58.206Z,85.62
2022-10-16T02:13:03.380Z,85.61
2022-10-16T02:14:08.047Z,85.45
2022-10-16T02:15:14.168Z,85.81
2022-10-16T02:16:17.864Z,85.98
2022-10-16T02:17:22.774Z,86.39
2022-10-16T02:18:28.438Z,86.13
2022-10-16T02:19:31.968Z,86.02
2022-10-16T02:20:36.062Z,85.97
2022-10-16T02:21:46.774Z,85.38
2022-10-16T02:22:51.334Z,85.04
2022-10-16T02:24:05.169Z,85.21
2022-10-16T02:25:28.631Z,84.98
2022-10-16T02:26:39.857Z,85.21
2022-10-16T02:28:02.839Z,85.74
2022-10-16T02:29:08.604Z,85.08
2022-10-16T02:30:21.509Z,84.90
2022-10-16T02:31:28.357Z,84.62
2022-10-16T02:32:33.429Z,85.23
2022-10-16T02:33:41.110Z,85.39
2022-10-16T02:34:45.451Z,85.16
2022-10-16T02:35:49.375Z,84.74
2022-10-16T02:36:52.985Z,85.72
2022-10-16T02:37:55.657Z,85.73
2022-10-16T02:39:02.778Z,85.72
2022-10-16T02:40:06.662Z,85.40
2022-10-16T02:41:12.261Z,85.50
2022-10-16T02:42:16.047Z,85.31
2022-10-16T02:43:18.607Z,85.59
2022-10-16T02:44:22.114Z,85.16
2022-10-16T02:45:26.965Z,85.10
2022-10-16T02:46:31.619Z,84.80
2022-10-16T02:47:35.031Z,85.24
2022-10-16T02:48:38.328Z,85.40
2022-10-16T02:49:41.529Z,85.62
2022-10-16T02:50:45.687Z,86.00
2022-10-16T02:51:49.049Z,86.12
2022-10-16T02:52:52.765Z,86.04
2022-10-16T02:53:55.539Z,85.76
2022-10-16T02:54:59.043Z,85.65
2022-10-16T02:56:05.066Z,85.34
2022-10-16T02:57:08.279Z,84.84
2022-10-16T02:58:10.592Z,84.34
2022-10-16T02:59:17.115Z,84.02
2022-10-16T03:00:20.118Z,84.30
2022-10-16T03:01:25.235Z,85.37
2022-10-16T03:02:28.800Z,85.43
2022-10-16T03:03:33.462Z,85.60
2022-10-16T03:04:35.701Z,85.35
2022-10-16T03:05:38.272Z,84.86
2022-10-16T03:06:40.627Z,84.56
2022-10-16T03:07:43.736Z,84.53
2022-10-16T03:08:47.113Z,84.72
2022-10-16T03:09:50.514Z,84.63
2022-10-16T03:10:54.058Z,84.78
2022-10-16T03:11:57.175Z,84.78
2022-10-16T03:13:00.925Z,84.66
2022-10-16T03:14:03.375Z,84.75
2022-10-16T03:15:09.316Z,85.29
2022-10-16T03:16:12.171Z,84.88
2022-10-16T03:17:17.475Z,84.61
2022-10-16T03:18:20.993Z,83.94
2022-10-16T03:19:25.715Z,84.61
2022-10-16T03:20:29.093Z,84.49
2022-10-16T03:21:32.515Z,83.92
2022-10-16T03:22:36.740Z,83.60
2022-10-16T03:23:40.352Z,83.10
2022-10-16T03:24:43.646Z,83.43
2022-10-16T03:25:48.749Z,83.76
2022-10-16T03:26:51.827Z,84.03
2022-10-16T03:27:54.058Z,83.87
2022-10-16T03:28:57.406Z,84.35
2022-10-16T03:30:03.479Z,84.84
2022-10-16T03:31:06.662Z,84.91
2022-10-16T03:32:10.361Z,84.97
2022-10-16T03:33:12.742Z,85.34
2022-10-16T03:34:18.486Z,84.81
2022-10-16T03:35:22.257Z,84.69
2022-10-16T03:36:25.971Z,85.13
2022-10-16T03:37:29.478Z,84.77
2022-10-16T03:38:35.726Z,84.24
2022-10-16T03:39:39.410Z,84.50
2022-10-16T03:40:43.114Z,84.55
2022-10-16T03:41:49.099Z,84.90
2022-10-16T03:42:52.432Z,84.73
2022-10-16T03:43:55.102Z,85.05
2022-10-16T03:44:58.817Z,84.98
2022-10-16T03:46:02.237Z,85.31
2022-10-16T03:47:06.035Z,85.13
2022-10-16T03:48:10.792Z,85.24
2022-10-16T03:49:14.193Z,84.78
2022-10-16T03:50:17.583Z,84.66
2022-10-16T03:51:20.993Z,84.56
2022-10-16T03:52:24.396Z,84.35
2022-10-16T03:53:29.787Z,84.30
2022-10-16T03:54:34.214Z,84.08
2022-10-16T03:55:37.616Z,83.88
2022-10-16T03:56:42.100Z,84.12
2022-10-16T03:57:47.449Z,84.20
2022-10-16T03:58:50.962Z,83.51
2022-10-16T03:59:54.195Z,83.32
2022-10-16T04:00:56.580Z,84.17
2022-10-16T04:02:00.534Z,84.30
2022-10-16T04:03:02.788Z,84.46
2022-10-16T04:04:07.867Z,84.45
2022-10-16T04:05:11.292Z,83.63
2022-10-16T04:06:16.840Z,83.40
2022-10-16T04:07:19.417Z,83.85
2022-10-16T04:08:22.702Z,84.38
2022-10-16T04:09:26.439Z,84.19
2022-10-16T04:10:28.678Z,84.39
2022-10-16T04:11:38.049Z,84.17
2022-10-16T04:12:42.582Z,83.84
2022-10-16T04:13:46.548Z,83.86
2022-10-16T04:14:48.968Z,83.09
2022-10-16T04:15:52.146Z,83.16
2022-10-16T04:16:55.342Z,83.77
2022-10-16T04:17:58.644Z,84.30
2022-10-16T04:19:05.075Z,83.42
2022-10-16T04:20:10.759Z,82.85
2022-10-16T04:21:14.267Z,82.89
2022-10-16T04:22:17.707Z,82.43
2022-10-16T04:23:21.391Z,82.70
2022-10-16T04:24:26.568Z,83.75
2022-10-16T04:25:30.387Z,84.52
2022-10-16T04:26:34.413Z,84.75
2022-10-16T04:27:38.336Z,84.98
2022-10-16T04:28:42.407Z,84.30
2022-10-16T04:29:46.078Z,84.50
2022-10-16T04:30:49.790Z,84.32
2022-10-16T04:31:53.428Z,84.29
2022-10-16T04:32:55.787Z,83.94
2022-10-16T04:34:02.191Z,84.08
2022-10-16T04:35:07.344Z,83.34
2022-10-16T04:36:10.648Z,83.77
2022-10-16T04:37:12.795Z,83.61
2022-10-16T04:38:16.316Z,84.31
2022-10-16T04:39:21.476Z,84.27
2022-10-16T04:40:24.773Z,83.88
2022-10-16T04:41:28.183Z,83.80
2022-10-16T04:42:30.853Z,84.10
2022-10-16T04:43:36.021Z,83.94
2022-10-16T04:44:39.429Z,84.07
2022-10-16T04:45:42.830Z,83.96
2022-10-16T04:46:45.996Z,83.63
2022-10-16T04:47:51.084Z,83.62
2022-10-16T04:48:54.493Z,83.37
2022-10-16T04:49:58.520Z,83.60
2022-10-16T04:51:03.059Z,83.47
2022-10-16T04:52:06.473Z,83.27
2022-10-16T04:53:10.498Z,83.05
2022-10-16T04:54:13.794Z,82.83
2022-10-16T04:55:18.336Z,82.72
2022-10-16T04:56:23.623Z,82.61
2022-10-16T04:57:29.576Z,82.42
2022-10-16T04:58:35.653Z,82.25
2022-10-16T04:59:39.050Z,81.69
2022-10-16T05:00:42.031Z,81.33
2022-10-16T05:01:45.019Z,81.37
2022-10-16T05:02:49.005Z,80.74
2022-10-16T05:03:52.763Z,80.27
2022-10-16T05:04:57.949Z,79.42
2022-10-16T05:06:03.794Z,79.01
2022-10-16T05:07:06.612Z,79.53
2022-10-16T05:08:09.798Z,79.80
2022-10-16T05:09:14.239Z,79.75
2022-10-16T05:10:18.160Z,79.79
2022-10-16T05:11:21.415Z,80.12
2022-10-16T05:12:25.590Z,79.84
2022-10-16T05:13:29.625Z,80.18
2022-10-16T05:14:32.921Z,80.70
2022-10-16T05:15:36.323Z,80.47
2022-10-16T05:16:38.563Z,80.32
2022-10-16T05:17:44.626Z,80.25
2022-10-16T05:18:48.685Z,79.77
2022-10-16T05:19:54.196Z,80.44
2022-10-16T05:20:57.086Z,79.67
2022-10-16T05:22:00.589Z,79.09
2022-10-16T05:23:03.905Z,80.14
2022-10-16T05:24:07.275Z,80.00
2022-10-16T05:25:10.583Z,79.75
2022-10-16T05:26:13.450Z,78.96
2022-10-16T05:27:19.369Z,78.08
2022-10-16T05:28:22.902Z,77.80
2022-10-16T05:29:26.587Z,77.46
2022-10-16T05:30:30.092Z,76.51
2022-10-16T05:31:34.329Z,76.67
2022-10-16T05:32:38.394Z,77.37
2022-10-16T05:33:42.114Z,77.30
2022-10-16T05:34:46.827Z,77.00
2022-10-16T05:35:50.961Z,76.14
2022-10-16T05:37:00.763Z,75.50
2022-10-16T05:38:04.447Z,75.49
2022-10-16T05:39:07.563Z,75.64
2022-10-16T05:40:11.699Z,76.03
2022-10-16T05:41:20.599Z,76.20
2022-10-16T05:42:24.313Z,76.20
2022-10-16T05:43:28.786Z,76.80
2022-10-16T05:44:31.574Z,76.79
2022-10-16T05:45:39.103Z,76.24
2022-10-16T05:46:44.391Z,75.62
2022-10-16T05:47:47.468Z,76.09
2022-10-16T05:48:54.341Z,75.94
2022-10-16T05:49:58.551Z,76.02
2022-10-16T05:51:04.307Z,75.80
2022-10-16T05:52:07.795Z,76.65
2022-10-16T05:53:11.271Z,77.27
2022-10-16T05:54:14.764Z,77.98
2022-10-16T05:55:17.015Z,77.78
2022-10-16T05:56:20.891Z,76.77
2022-10-16T05:57:24.529Z,76.51
2022-10-16T05:58:30.982Z,77.19
2022-10-16T05:59:34.389Z,76.12
2022-10-16T06:00:37.790Z,75.64
2022-10-16T06:01:42.338Z,74.25
2022-10-16T06:02:46.391Z,72.49
2022-10-16T06:03:51.042Z,71.43
2022-10-16T06:04:57.180Z,68.93
2022-10-16T06:06:00.537Z,66.97
2022-10-16T06:07:03.939Z,67.73
2022-10-16T06:08:06.177Z,67.37
2022-10-16T06:09:10.663Z,65.64
2022-10-16T06:10:13.195Z,65.13
2022-10-16T06:11:18.364Z,63.97
2022-10-16T06:12:21.983Z,64.83
2022-10-16T06:13:24.851Z,64.65
2022-10-16T06:14:29.356Z,64.02
2022-10-16T06:15:33.648Z,63.43
2022-10-16T06:16:37.886Z,63.72
2022-10-16T06:17:41.494Z,63.61
2022-10-16T06:18:44.476Z,62.86
2022-10-16T06:19:49.214Z,64.62
2022-10-16T06:20:52.634Z,63.87
2022-10-16T06:21:54.938Z,62.08
2022-10-16T06:22:58.809Z,61.90
2022-10-16T06:24:02.549Z,61.16
2022-10-16T06:25:05.401Z,58.58
2022-10-16T06:26:10.710Z,56.88
2022-10-16T06:27:16.729Z,56.46
2022-10-16T06:28:24.060Z,57.09
2022-10-16T06:29:27.426Z,59.14
2022-10-16T06:30:30.970Z,61.89
2022-10-16T06:31:34.895Z,63.39
2022-10-16T06:32:38.292Z,64.36
2022-10-16T06:33:41.722Z,64.44
2022-10-16T06:34:45.302Z,65.05
2022-10-16T06:35:48.483Z,61.62
2022-10-16T06:36:52.613Z,56.64
2022-10-16T06:37:57.907Z,50.59
2022-10-16T06:39:01.190Z,47.51
2022-10-16T06:40:08.026Z,46.10
2022-10-16T06:41:12.599Z,45.79
2022-10-16T06:42:18.088Z,45.13
2022-10-16T06:43:23.149Z,44.26
2022-10-16T06:44:26.548Z,44.13
2022-10-16T06:45:29.223Z,46.97
2022-10-16T06:46:31.690Z,45.96
2022-10-16T06:47:34.915Z,43.10
2022-10-16T06:48:38.908Z,41.39
2022-10-16T06:49:43.672Z,39.21
2022-10-16T06:50:48.728Z,36.65
2022-10-16T06:51:52.139Z,34.85
2022-10-16T06:52:55.319Z,32.84
2022-10-16T06:54:03.400Z,33.20
2022-10-16T06:55:06.132Z,32.43
2022-10-16T06:56:16.500Z,31.60
2022-10-16T06:57:18.855Z,31.09
2022-10-16T06:58:22.065Z,31.64
2022-10-16T06:59:25.442Z,31.37
2022-10-16T07:00:27.955Z,31.13
2022-10-16T07:01:30.466Z,29.78
2022-10-16T07:02:33.653Z,28.84
2022-10-16T07:03:43.436Z,28.41
2022-10-16T07:04:47.348Z,28.71
2022-10-16T07:05:51.347Z,28.94
2022-10-16T07:06:54.567Z,29.14
2022-10-16T07:07:57.873Z,28.92
2022-10-16T07:09:02.110Z,28.78
2022-10-16T07:10:05.609Z,27.72
2022-10-16T07:11:11.362Z,27.25
2022-10-16T07:12:14.712Z,26.29
2022-10-16T07:13:17.383Z,25.51
2022-10-16T07:14:23.502Z,26.23
2022-10-16T07:15:27.306Z,26.02
2022-10-16T07:16:31.762Z,26.65
2022-10-16T07:17:35.361Z,25.75
2022-10-16T07:18:39.598Z,25.42
2022-10-16T07:19:44.252Z,25.63
2022-10-16T07:20:47.871Z,25.57
2022-10-16T07:21:50.331Z,25.25
2022-10-16T07:22:53.734Z,24.68
2022-10-16T07:24:02.773Z,24.87
2022-10-16T07:25:06.695Z,25.46
2022-10-16T07:26:11.117Z,25.88
2022-10-16T07:27:15.690Z,24.92
2022-10-16T07:28:20.172Z,24.68
2022-10-16T07:29:23.419Z,24.26
2022-10-16T07:30:28.282Z,23.77
2022-10-16T07:31:31.799Z,24.70
2022-10-16T07:32:35.920Z,23.89
2022-10-16T07:33:40.096Z,24.52
2022-10-16T07:34:44.005Z,25.19
2022-10-16T07:35:53.200Z,23.87
2022-10-16T07:36:56.947Z,24.08
2022-10-16T07:38:01.111Z,23.24
2022-10-16T07:39:05.108Z,22.99
2022-10-16T07:40:11.876Z,23.36
2022-10-16T07:41:17.474Z,23.40
2022-10-16T07:42:22.921Z,24.05
2022-10-16T07:43:26.333Z,23.76
2022-10-16T07:44:29.514Z,23.78
2022-10-16T07:45:32.926Z,23.33
2022-10-16T07:46:37.781Z,23.92
2022-10-16T07:47:41.179Z,23.76
2022-10-16T07:48:46.992Z,23.31
2022-10-16T07:49:50.497Z,23.82
2022-10-16T07:50:53.781Z,24.26
2022-10-16T07:51:57.391Z,23.88
2022-10-16T07:53:00.176Z,24.05
2022-10-16T07:54:05.193Z,23.87
2022-10-16T07:55:09.343Z,24.81
2022-10-16T07:56:12.363Z,24.74
2022-10-16T07:57:17.631Z,24.79
2022-10-16T07:58:20.690Z,23.40
2022-10-16T07:59:25.386Z,23.45
2022-10-16T08:00:30.350Z,23.86
2022-10-16T08:01:34.125Z,24.35
2022-10-16T08:02:37.466Z,23.38
2022-10-16T08:03:43.674Z,23.13
2022-10-16T08:04:48.223Z,23.03
2022-10-16T08:05:56.961Z,23.76
2022-10-16T08:07:01.331Z,23.82
2022-10-16T08:08:06.364Z,24.30
2022-10-16T08:09:09.149Z,24.47
2022-10-16T08:10:13.384Z,24.77
2022-10-16T08:11:17.121Z,26.04
2022-10-16T08:12:20.323Z,26.07
2022-10-16T08:13:23.470Z,25.24
2022-10-16T08:14:26.986Z,25.62
2022-10-16T08:15:30.492Z,25.91
2022-10-16T08:16:35.563Z,25.67
2022-10-16T08:17:39.996Z,25.22
2022-10-16T08:18:43.191Z,25.42
2022-10-16T08:19:50.047Z,25.36
2022-10-16T08:21:00.447Z,25.61
2022-10-16T08:22:04.563Z,25.62
2022-10-16T08:23:08.178Z,25.71
2022-10-16T08:24:13.038Z,25.90
2022-10-16T08:25:19.115Z,27.26
2022-10-16T08:26:24.168Z,27.36
2022-10-16T08:27:35.220Z,26.58
2022-10-16T08:28:43.631Z,27.91
2022-10-16T08:29:47.065Z,29.68
2022-10-16T08:30:50.581Z,29.57
2022-10-16T08:31:52.826Z,29.11
2022-10-16T08:32:56.537Z,29.13
2022-10-16T08:34:00.706Z,29.77
2022-10-16T08:35:04.069Z,30.37
2022-10-16T08:36:07.824Z,31.00
2022-10-16T08:37:12.749Z,29.88
2022-10-16T08:38:16.463Z,30.28
2022-10-16T08:39:19.353Z,30.15
2022-10-16T08:40:33.199Z,31.21
2022-10-16T08:41:45.465Z,32.56
2022-10-16T08:42:50.684Z,33.35
2022-10-16T08:44:05.231Z,33.24
2022-10-16T08:45:28.777Z,33.13
2022-10-16T08:46:33.744Z,32.32
2022-10-16T08:47:37.774Z,32.32
2022-10-16T08:48:56.377Z,33.31
2022-10-16T08:50:01.597Z,33.69
2022-10-16T08:51:06.053Z,34.33
2022-10-16T08:52:13.882Z,34.78
2022-10-16T08:53:22.812Z,35.10
2022-10-16T08:54:41.870Z,35.25
2022-10-16T08:55:47.010Z,34.32
2022-10-16T08:56:50.630Z,35.17
2022-10-16T08:57:54.121Z,35.29
2022-10-16T08:59:01.577Z,35.79
2022-10-16T09:00:08.736Z,34.89
2022-10-16T09:01:17.413Z,36.21
2022-10-16T09:02:41.473Z,35.78
2022-10-16T09:03:46.862Z,34.97
2022-10-16T09:04:56.509Z,35.48
2022-10-16T09:06:02.005Z,36.33
2022-10-16T09:07:13.137Z,34.99
2022-10-16T09:08:18.555Z,35.82
2022-10-16T09:09:28.615Z,36.35
2022-10-16T09:10:33.897Z,35.03
2022-10-16T09:11:41.987Z,35.86
2022-10-16T09:12:48.639Z,37.29
2022-10-16T09:13:53.883Z,37.67
2022-10-16T09:15:10.362Z,37.45
2022-10-16T09:16:23.802Z,36.76
2022-10-16T09:17:49.357Z,36.27
2022-10-16T09:18:54.718Z,36.63
2022-10-16T09:20:02.926Z,37.57
2022-10-16T09:21:25.856Z,37.09
2022-10-16T09:22:31.745Z,35.81
2022-10-16T09:23:37.161Z,36.91
2022-10-16T09:24:39.401Z,36.16
2022-10-16T09:25:45.378Z,34.97
2022-10-16T09:26:49.137Z,35.26
2022-10-16T09:27:54.196Z,36.01
2022-10-16T09:28:59.658Z,36.83
2022-10-16T09:30:06.117Z,36.69
2022-10-16T09:31:17.476Z,36.59
2022-10-16T09:32:22.540Z,36.93
2022-10-16T09:33:26.774Z,36.97
2022-10-16T09:34:35.698Z,37.42
2022-10-16T09:35:44.332Z,36.25
2022-10-16T09:36:47.874Z,37.60
2022-10-16T09:37:52.900Z,35.99
2022-10-16T09:39:04.244Z,36.54
2022-10-16T09:40:08.277Z,36.04
2022-10-16T09:41:24.618Z,36.47
2022-10-16T09:42:36.999Z,35.57
2022-10-16T09:43:44.798Z,35.67
2022-10-16T09:44:55.103Z,36.65
2022-10-16T09:46:06.222Z,36.58
2022-10-16T09:47:19.533Z,37.15
2022-10-16T09:48:22.412Z,37.23
2022-10-16T09:49:28.425Z,37.38
2022-10-16T09:50:31.732Z,37.28
2022-10-16T09:51:39.439Z,36.08
2022-10-16T09:52:42.656Z,35.89
2022-10-16T09:53:47.558Z,36.19
2022-10-16T09:54:52.006Z,37.34
2022-10-16T09:55:55.304Z,36.50
2022-10-16T09:57:08.741Z,37.13
2022-10-16T09:58:14.231Z,36.25
2022-10-16T09:59:18.456Z,37.07
2022-10-16T10:00:22.171Z,37.16
2022-10-16T10:01:27.356Z,36.50
2022-10-16T10:02:39.459Z,36.44
2022-10-16T10:03:44.070Z,35.50
2022-10-16T10:04:56.465Z,35.95
2022-10-16T10:06:02.087Z,36.75
2022-10-16T10:07:06.387Z,37.09
2022-10-16T10:08:11.364Z,36.69
2022-10-16T10:09:20.603Z,36.11
2022-10-16T10:10:25.895Z,37.40
2022-10-16T10:11:49.294Z,36.32
2022-10-16T10:12:53.719Z,36.86
2022-10-16T10:13:59.250Z,37.39
2022-10-16T10:15:08.225Z,36.72
2022-10-16T10:16:12.039Z,36.91
2022-10-16T10:17:17.204Z,37.04
2022-10-16T10:18:23.216Z,37.27
2022-10-16T10:19:32.635Z,36.49
2022-10-16T10:20:37.216Z,37.57
2022-10-16T10:21:40.634Z,37.03
2022-10-16T10:22:45.746Z,38.15
2022-10-16T10:23:50.987Z,37.84
2022-10-16T10:25:12.385Z,36.88
2022-10-16T10:26:17.737Z,37.07
2022-10-16T10:27:21.975Z,38.08
2022-10-16T10:28:42.206Z,37.93
2022-10-16T10:29:50.072Z,38.07
2022-10-16T10:31:00.371Z,36.71
2022-10-16T10:32:11.822Z,36.86
2022-10-16T10:33:15.835Z,37.47
2022-10-16T10:34:21.014Z,38.12
2022-10-16T10:35:26.620Z,36.92
2022-10-16T10:36:32.524Z,37.99
2022-10-16T10:37:42.703Z,36.49
2022-10-16T10:38:50.189Z,36.94
2022-10-16T10:39:55.200Z,37.35
2022-10-16T10:41:04.080Z,38.03
2022-10-16T10:42:21.373Z,37.95
2022-10-16T10:43:26.666Z,38.15
2022-10-16T10:44:38.942Z,36.84
2022-10-16T10:45:48.844Z,36.80
2022-10-16T10:46:53.462Z,37.48
2022-10-16T10:47:57.605Z,37.46
2022-10-16T10:49:05.948Z,37.20
2022-10-16T10:50:31.252Z,38.46
2022-10-16T10:51:36.219Z,38.96
2022-10-16T10:52:44.324Z,38.11
2022-10-16T10:53:49.702Z,37.96
2022-10-16T10:54:56.627Z,36.43
2022-10-16T10:56:14.575Z,36.48
2022-10-16T10:57:27.267Z,37.41
2022-10-16T10:58:38.401Z,36.87
2022-10-16T10:59:51.399Z,36.91
2022-10-16T11:01:02.783Z,37.45
2022-10-16T11:02:13.009Z,37.51
2022-10-16T11:03:21.560Z,39.08
2022-10-16T11:04:29.035Z,38.81
2022-10-16T11:05:33.269Z,39.27
2022-10-16T11:06:49.309Z,39.45
2022-10-16T11:08:01.378Z,39.19
2022-10-16T11:09:06.334Z,39.44
2022-10-16T11:10:16.221Z,39.64
2022-10-16T11:11:24.766Z,39.61
2022-10-16T11:12:34.800Z,39.67
2022-10-16T11:13:40.513Z,39.88
2022-10-16T11:14:48.618Z,39.92
2022-10-16T11:15:55.994Z,39.70
2022-10-16T11:17:15.932Z,40.23
2022-10-16T11:18:23.580Z,38.80
2022-10-16T11:19:43.799Z,40.24
2022-10-16T11:20:54.773Z,39.98
2022-10-16T11:22:02.928Z,40.28
2022-10-16T11:23:10.298Z,39.16
2022-10-16T11:24:17.018Z,39.79
2022-10-16T11:25:25.556Z,40.38
2022-10-16T11:26:31.763Z,38.99
2022-10-16T11:27:39.213Z,40.76
2022-10-16T11:28:48.759Z,40.37
2022-10-16T11:29:59.391Z,40.42
2022-10-16T11:31:06.477Z,40.34
2022-10-16T11:32:11.964Z,39.67
2022-10-16T11:33:17.078Z,40.15
2022-10-16T11:34:24.292Z,40.21
2022-10-16T11:35:35.982Z,39.49
2022-10-16T11:36:50.321Z,40.08
2022-10-16T11:37:55.706Z,38.97
2022-10-16T11:39:05.687Z,39.18
2022-10-16T11:40:19.326Z,38.51
2022-10-16T11:41:27.413Z,39.11
2022-10-16T11:42:36.787Z,37.61
2022-10-16T11:43:43.103Z,38.27
2022-10-16T11:44:52.117Z,37.96
2022-10-16T11:45:56.588Z,38.25
2022-10-16T11:47:28.466Z,38.85
2022-10-16T11:48:30.130Z,38.25
2022-10-16T11:49:35.122Z,37.82
2022-10-16T11:50:51.762Z,38.43
2022-10-16T11:51:59.822Z,37.98
2022-10-16T11:53:08.375Z,37.80
2022-10-16T11:54:15.533Z,38.72
2022-10-16T11:55:20.603Z,38.48
2022-10-16T11:56:25.248Z,37.29
2022-10-16T11:57:30.459Z,37.16
2022-10-16T11:58:36.973Z,37.67
2022-10-16T11:59:42.084Z,36.48
2022-10-16T12:00:50.806Z,37.82
2022-10-16T12:01:56.057Z,36.24
2022-10-16T12:03:02.466Z,37.37
2022-10-16T12:04:09.113Z,37.30
2022-10-16T12:05:16.911Z,37.23
2022-10-16T12:06:31.071Z,36.42
2022-10-16T12:07:36.746Z,36.78
2022-10-16T12:08:41.453Z,36.62
2022-10-16T12:09:45.966Z,36.13
2022-10-16T12:10:51.555Z,37.53
2022-10-16T12:11:54.993Z,37.73
2022-10-16T12:13:01.395Z,37.98
2022-10-16T12:14:09.810Z,37.53
2022-10-16T12:15:47.108Z,38.57
2022-10-16T12:16:31.652Z,38.40
2022-10-16T12:17:39.337Z,37.99
2022-10-16T12:18:42.724Z,37.62
2022-10-16T12:19:46.005Z,38.96
2022-10-16T12:20:52.356Z,39.04
2022-10-16T12:22:01.804Z,39.52
2022-10-16T12:23:08.558Z,39.17
2022-10-16T12:24:24.795Z,38.84
2022-10-16T12:25:31.342Z,38.34
2022-10-16T12:26:37.769Z,39.03
2022-10-16T12:27:40.639Z,39.86
2022-10-16T12:28:45.670Z,38.62
2022-10-16T12:29:49.121Z,39.79
2022-10-16T12:30:57.017Z,39.30
2022-10-16T12:32:00.829Z,39.48
2022-10-16T12:33:05.379Z,39.18
2022-10-16T12:34:15.260Z,39.57
2022-10-16T12:35:23.031Z,39.25
2022-10-16T12:36:36.366Z,40.02
2022-10-16T12:38:51.734Z,39.18
2022-10-16T12:39:57.119Z,40.26
2022-10-16T12:41:02.281Z,39.77
2022-10-16T12:42:07.470Z,40.83
2022-10-16T12:43:14.246Z,39.88
2022-10-16T12:44:25.306Z,40.11
2022-10-16T12:45:32.046Z,39.83
2022-10-16T12:46:37.261Z,40.52
2022-10-16T12:47:42.542Z,40.77
2022-10-16T12:48:48.990Z,40.63
2022-10-16T12:49:54.982Z,40.37
2022-10-16T12:50:58.071Z,40.50
2022-10-16T12:52:00.520Z,40.43
2022-10-16T12:53:06.573Z,39.34
2022-10-16T12:54:20.747Z,41.21
2022-10-16T12:55:26.701Z,39.96
2022-10-16T12:56:32.779Z,39.33
2022-10-16T12:57:42.902Z,40.58
2022-10-16T12:58:50.909Z,40.97
2022-10-16T12:59:57.339Z,40.65
2022-10-16T13:01:05.780Z,40.94
2022-10-16T13:02:27.790Z,40.19
2022-10-16T13:03:37.189Z,39.53
2022-10-16T13:04:59.196Z,39.68
2022-10-16T13:06:10.319Z,41.33
2022-10-16T13:07:14.448Z,40.61
2022-10-16T13:08:20.042Z,41.66
2022-10-16T13:09:24.390Z,40.59
2022-10-16T13:10:35.210Z,39.73
2022-10-16T13:11:57.547Z,40.50
2022-10-16T13:13:11.662Z,41.86
2022-10-16T13:14:21.643Z,41.22
2022-10-16T13:15:30.314Z,39.81
2022-10-16T13:16:39.309Z,39.84
2022-10-16T13:17:46.896Z,39.66
2022-10-16T13:18:51.445Z,40.15
2022-10-16T13:19:57.550Z,40.25
2022-10-16T13:21:11.814Z,40.40
2022-10-16T13:22:34.538Z,40.75
2022-10-16T13:23:41.135Z,41.88
2022-10-16T13:24:56.589Z,41.41
2022-10-16T13:26:01.556Z,42.07
2022-10-16T13:27:09.520Z,42.38
2022-10-16T13:28:14.111Z,42.55
2022-10-16T13:29:17.711Z,41.72
2022-10-16T13:30:26.822Z,41.30
2022-10-16T13:31:29.222Z,43.06
2022-10-16T13:32:34.760Z,43.32
2022-10-16T13:33:42.835Z,43.03
2022-10-16T13:34:48.735Z,42.50
2022-10-16T13:35:53.294Z,42.81
2022-10-16T13:36:57.820Z,43.36
2022-10-16T13:38:20.846Z,43.51
2022-10-16T13:39:26.020Z,43.44
2022-10-16T13:40:29.431Z,43.45
2022-10-16T13:41:32.194Z,43.55
2022-10-16T13:42:36.337Z,43.08
2022-10-16T13:43:41.341Z,42.92
2022-10-16T13:44:46.780Z,43.24
2022-10-16T13:46:04.102Z,43.06
2022-10-16T13:47:07.491Z,43.73
2022-10-16T13:48:14.266Z,42.40
2022-10-16T13:49:18.676Z,42.33
2022-10-16T13:50:20.915Z,42.80
2022-10-16T13:51:26.366Z,43.57
2022-10-16T13:52:29.573Z,43.75
2022-10-16T13:53:34.888Z,43.58
2022-10-16T13:54:38.068Z,44.19
2022-10-16T13:55:41.905Z,43.73
2022-10-16T13:56:46.657Z,44.28
2022-10-16T13:57:51.302Z,44.38
2022-10-16T13:59:01.285Z,44.09
2022-10-16T14:00:07.942Z,44.17
2022-10-16T14:01:20.693Z,44.78
2022-10-16T14:02:26.626Z,44.67
2022-10-16T14:03:31.186Z,45.09
2022-10-16T14:04:34.976Z,45.13
2022-10-16T14:05:41.854Z,45.56
2022-10-16T14:06:47.133Z,45.55
2022-10-16T14:07:51.683Z,45.24
2022-10-16T14:09:13.868Z,44.92
2022-10-16T14:10:20.826Z,45.89
2022-10-16T14:11:28.069Z,46.28
2022-10-16T14:12:31.602Z,45.71